Startpagina
METAR-TAF:

METAR-TAF

Vliegvelden :

Productieplatform

Hoorn-a, Nederland

breedte: 52-55-05N, lengte: 4-09-01E, hoogte: 41 m

Actueel weer

Dit bericht is 27 minuten geleden gemaakt, om 18:25 UTC
Wind 28 kt uit het zuidzuidoosten
Temperatuur 8°C
Vochtigheid 87%
Druk 1009 hPa
Zicht: 8000 m
Weinig wolken op 800 ft
Gebroken wolken op 1000 ft
Gebroken wolken op 1200 ft

METAR: EHQE 261825Z AUTO 16028KT 8000 FEW008 BKN010 BKN012 08/06 Q1009

Tijdstip: 19:52 (18:52 UTC)


TAF: ontbreekt

Waarnemingen en weersverwachtingen van meer dan 4000 vliegvelden (METAR en TAF).

De beschikbare stations zijn de gele en rode punten op de kaart.

Ga met uw muis naar het station om de naam te zien.

Klik dan om waarnemingen en weersverwachtingen te zien.

kaart wijzigen: klik op de groene knoppen met een zwart kruis om in te zoomen, op de groene knop met een streepje om uit te zoomen of op de groene pijlen voor aangrenzende kaarten.


METAR-TAF: